createdAt,value
2022-08-04T00:01:27.754Z,100333.7
2022-08-04T00:03:32.407Z,100331.53
2022-08-04T00:05:37.058Z,100335.08
2022-08-04T00:07:45.822Z,100335.08
2022-08-04T00:09:50.398Z,100333.52
2022-08-04T00:11:54.919Z,100331.77
2022-08-04T00:14:04.860Z,100332
2022-08-04T00:16:09.387Z,100329.98
2022-08-04T00:18:14.107Z,100330.45
2022-08-04T00:20:18.622Z,100330.03
2022-08-04T00:22:23.248Z,100331.73
2022-08-04T00:24:27.840Z,100330.95
2022-08-04T00:26:32.487Z,100327.7
2022-08-04T00:28:37.214Z,100332.5
2022-08-04T00:30:41.823Z,100330.04
2022-08-04T00:32:46.355Z,100330.32
2022-08-04T00:34:53.544Z,100329.81
2022-08-04T00:36:58.257Z,100331.52
2022-08-04T00:39:03.642Z,100335.19
2022-08-04T00:41:09.136Z,100334.17
2022-08-04T00:43:13.659Z,100333.35
2022-08-04T00:45:18.284Z,100331.93
2022-08-04T00:47:23.405Z,100330.04
2022-08-04T00:49:28.110Z,100328.39
2022-08-04T00:51:32.636Z,100329.28
2022-08-04T00:53:37.183Z,100327.38
2022-08-04T00:55:53.583Z,100327.61
2022-08-04T00:57:58.096Z,100321.74
2022-08-04T01:00:02.716Z,100325.16
2022-08-04T01:02:07.339Z,100328.66
2022-08-04T01:04:11.867Z,100329.09
2022-08-04T01:06:16.460Z,100329.55
2022-08-04T01:08:21.099Z,100328.8
2022-08-04T01:10:25.719Z,100331.45
2022-08-04T01:12:30.425Z,100330.86
2022-08-04T01:14:34.962Z,100336.72
2022-08-04T01:16:39.688Z,100335.9
2022-08-04T01:18:44.183Z,100338.3
2022-08-04T01:20:48.722Z,100336.28
2022-08-04T01:22:53.244Z,100335.94
2022-08-04T01:24:57.715Z,100338.97
2022-08-04T01:27:06.633Z,100342.24
2022-08-04T01:29:16.256Z,100340.98
2022-08-04T01:31:21.050Z,100338.66
2022-08-04T01:33:25.672Z,100336.02
2022-08-04T01:35:48.930Z,100334.91
2022-08-04T01:37:53.550Z,100342.56
2022-08-04T01:39:58.044Z,100337.19
2022-08-04T01:42:02.705Z,100337.48
2022-08-04T01:44:07.827Z,100335.47
2022-08-04T01:46:12.444Z,100335.94
2022-08-04T01:48:17.069Z,100337.53
2022-08-04T01:50:21.583Z,100335.48
2022-08-04T01:52:26.109Z,100335.05
2022-08-04T01:54:30.732Z,100337.81
2022-08-04T01:56:35.352Z,100332.78
2022-08-04T01:58:39.866Z,100332.94
2022-08-04T02:00:44.594Z,100333.95
2022-08-04T02:02:49.467Z,100329.76
2022-08-04T02:04:54.248Z,100330.54
2022-08-04T02:06:58.968Z,100323.86
2022-08-04T02:09:03.589Z,100326.13
2022-08-04T02:11:08.212Z,100324
2022-08-04T02:13:12.824Z,100322.62
2022-08-04T02:15:17.463Z,100321.7
2022-08-04T02:17:22.655Z,100324.66
2022-08-04T02:19:27.545Z,100323.43
2022-08-04T02:21:43.531Z,100325.45
2022-08-04T02:23:48.232Z,100327.52
2022-08-04T02:25:52.856Z,100325.48
2022-08-04T02:28:01.873Z,100323.88
2022-08-04T02:30:06.375Z,100325.76
2022-08-04T02:32:10.903Z,100323.96
2022-08-04T02:34:15.436Z,100321.66
2022-08-04T02:36:19.959Z,100325.35
2022-08-04T02:38:27.029Z,100318.77
2022-08-04T02:40:31.558Z,100310.91
2022-08-04T02:42:36.170Z,100316.13
2022-08-04T02:44:40.898Z,100311.81
2022-08-04T02:46:45.482Z,100310.03
2022-08-04T02:48:50.050Z,100309.61
2022-08-04T02:50:54.661Z,100306.98
2022-08-04T02:52:59.389Z,100312.25
2022-08-04T02:55:04.106Z,100311.95
2022-08-04T02:57:09.586Z,100310
2022-08-04T02:59:14.276Z,100313.41
2022-08-04T03:01:18.962Z,100316.77
2022-08-04T03:03:23.725Z,100315.11
2022-08-04T03:05:28.343Z,100320.86
2022-08-04T03:07:35.092Z,100320.27
2022-08-04T03:09:39.608Z,100321.58
2022-08-04T03:11:44.154Z,100323.28
2022-08-04T03:13:48.758Z,100319.77
2022-08-04T03:15:53.506Z,100317.32
2022-08-04T03:17:58.144Z,100317.55
2022-08-04T03:20:02.701Z,100319.3
2022-08-04T03:22:07.360Z,100319.92
2022-08-04T03:24:11.935Z,100317.74
2022-08-04T03:26:21.830Z,100322.25
2022-08-04T03:28:26.429Z,100322.03
2022-08-04T03:30:30.968Z,100324.03
2022-08-04T03:32:35.592Z,100327.56
2022-08-04T03:34:40.196Z,100327.11
2022-08-04T03:36:44.835Z,100326.41
2022-08-04T03:38:58.294Z,100330
2022-08-04T03:41:02.988Z,100331.47
2022-08-04T03:43:07.603Z,100333.8
2022-08-04T03:46:00.655Z,100331.92
2022-08-04T03:48:05.183Z,100332.86
2022-08-04T03:50:09.793Z,100332.25
2022-08-04T03:52:14.426Z,100328.44
2022-08-04T03:54:19.049Z,100330.11
2022-08-04T03:56:23.668Z,100326.83
2022-08-04T03:58:35.153Z,100328.88
2022-08-04T04:00:39.698Z,100329.05
2022-08-04T04:02:44.418Z,100332.13
2022-08-04T04:04:49.317Z,100327
2022-08-04T04:06:54.810Z,100327.16
2022-08-04T04:09:00.551Z,100326.88
2022-08-04T04:11:05.543Z,100328.86
2022-08-04T04:13:10.065Z,100327.33
2022-08-04T04:15:15.184Z,100325.06
2022-08-04T04:17:20.517Z,100326.44
2022-08-04T04:19:25.774Z,100321.17
2022-08-04T04:21:30.349Z,100327.55
2022-08-04T04:23:34.908Z,100328.78
2022-08-04T04:25:39.383Z,100331.2
2022-08-04T04:27:43.953Z,100329.98
2022-08-04T04:29:48.573Z,100325.94
2022-08-04T04:31:53.191Z,100331.95
2022-08-04T04:33:57.684Z,100326.25
2022-08-04T04:36:02.247Z,100326.2
2022-08-04T04:38:06.853Z,100326.52
2022-08-04T04:40:11.373Z,100331.79
2022-08-04T04:42:16.753Z,100335.14
2022-08-04T04:44:21.539Z,100335.73
2022-08-04T04:46:29.920Z,100334.86
2022-08-04T04:48:34.453Z,100337.52
2022-08-04T04:50:38.963Z,100338.86
2022-08-04T04:52:43.507Z,100339.55
2022-08-04T04:54:47.979Z,100342.98
2022-08-04T04:56:52.398Z,100338.84
2022-08-04T04:58:56.851Z,100343.99
2022-08-04T05:01:01.264Z,100341.75
2022-08-04T05:03:10.178Z,100339.92
2022-08-04T05:05:14.717Z,100342.11
2022-08-04T05:07:19.603Z,100343.66
2022-08-04T05:09:24.563Z,100338.85
2022-08-04T05:11:29.079Z,100341.14
2022-08-04T05:14:41.296Z,100338.67
2022-08-04T05:16:46.446Z,100342.54
2022-08-04T05:18:51.055Z,100341.08
2022-08-04T05:20:55.675Z,100342.63
2022-08-04T05:23:00.196Z,100342.31
2022-08-04T05:25:04.813Z,100335.52
2022-08-04T05:27:09.784Z,100336.61
2022-08-04T05:29:17.651Z,100335.56
2022-08-04T05:31:23.096Z,100335.75
2022-08-04T05:33:30.312Z,100337.4
2022-08-04T05:36:27.412Z,100333.77
2022-08-04T05:38:44.932Z,100335.14
2022-08-04T05:40:49.469Z,100334
2022-08-04T05:42:54.085Z,100333.3
2022-08-04T05:44:58.704Z,100335.77
2022-08-04T05:47:03.327Z,100335.23
2022-08-04T05:49:07.953Z,100339.8
2022-08-04T05:51:13.803Z,100332.13
2022-08-04T05:53:18.274Z,100332.5
2022-08-04T05:56:00.156Z,100334.82
2022-08-04T05:58:04.842Z,100340.02
2022-08-04T06:00:41.428Z,100337.67
2022-08-04T06:02:55.860Z,100340.45
2022-08-04T06:05:00.484Z,100341.81
2022-08-04T06:07:04.906Z,100342.47
2022-08-04T06:09:09.522Z,100343.81
2022-08-04T06:11:14.049Z,100342.13
2022-08-04T06:13:51.187Z,100345.38
2022-08-04T06:15:57.894Z,100347.45
2022-08-04T06:20:18.646Z,100348.26
2022-08-04T06:22:29.474Z,100350.8
2022-08-04T06:24:34.102Z,100354.88
2022-08-04T06:26:38.821Z,100356.88
2022-08-04T06:28:43.449Z,100354.84
2022-08-04T06:30:48.068Z,100352.77
2022-08-04T06:33:05.269Z,100353.5
2022-08-04T06:35:09.900Z,100353.44
2022-08-04T06:37:44.724Z,100351.22
2022-08-04T06:39:50.152Z,100356.13
2022-08-04T06:42:23.074Z,100355.17
2022-08-04T06:44:27.617Z,100354.91
2022-08-04T06:46:32.040Z,100355.82
2022-08-04T06:48:36.469Z,100354.45
2022-08-04T06:51:37.181Z,100352.22
2022-08-04T06:53:52.720Z,100353.11
2022-08-04T06:55:57.457Z,100349.3
2022-08-04T06:58:04.523Z,100350.31
2022-08-04T07:00:09.044Z,100351.88
2022-08-04T07:02:13.809Z,100352.48
2022-08-04T07:04:18.493Z,100351.84
2022-08-04T07:06:23.117Z,100357.91
2022-08-04T07:08:27.781Z,100354.81
2022-08-04T07:10:32.367Z,100352.47
2022-08-04T07:12:36.981Z,100351.91
2022-08-04T07:14:41.495Z,100350.41
2022-08-04T07:16:46.019Z,100351.88
2022-08-04T07:18:50.606Z,100354.33
2022-08-04T07:20:55.148Z,100353.22
2022-08-04T07:22:59.670Z,100352.04
2022-08-04T07:25:06.984Z,100352.46
2022-08-04T07:27:16.679Z,100351.81
2022-08-04T07:29:51.081Z,100345.69
2022-08-04T07:31:55.734Z,100352.05
2022-08-04T07:34:22.177Z,100339.13
2022-08-04T07:36:38.416Z,100337.86
2022-08-04T07:38:59.600Z,100339.56
2022-08-04T07:41:35.238Z,100344.38
2022-08-04T07:43:40.863Z,100346.82
2022-08-04T07:45:47.563Z,100347.24
2022-08-04T07:48:06.693Z,100349.98
2022-08-04T07:50:11.194Z,100349.8
2022-08-04T07:52:16.091Z,100344.97
2022-08-04T07:54:20.664Z,100346.39
2022-08-04T07:56:25.391Z,100340.11
2022-08-04T07:58:31.381Z,100343.34
2022-08-04T08:00:35.963Z,100347.1
2022-08-04T08:02:40.582Z,100342.39
2022-08-04T08:04:45.310Z,100350.65
2022-08-04T08:06:50.129Z,100340.56
2022-08-04T08:08:54.751Z,100346.82
2022-08-04T08:10:59.276Z,100338.57
2022-08-04T08:13:03.893Z,100340.56
2022-08-04T08:15:11.710Z,100339.39
2022-08-04T08:17:21.132Z,100341.98
2022-08-04T08:19:26.138Z,100337.53
2022-08-04T08:21:30.672Z,100339.16
2022-08-04T08:23:35.294Z,100338.39
2022-08-04T08:25:40.030Z,100338.64
2022-08-04T08:27:57.648Z,100343.66
2022-08-04T08:30:02.265Z,100339.31
2022-08-04T08:32:09.631Z,100342.31
2022-08-04T08:34:27.417Z,100339.22
2022-08-04T08:36:32.823Z,100345.21
2022-08-04T08:38:37.419Z,100345.74
2022-08-04T08:40:42.505Z,100342.74
2022-08-04T08:42:47.073Z,100346.02
2022-08-04T08:44:57.888Z,100344.8
2022-08-04T08:47:02.684Z,100346.19
2022-08-04T08:49:07.349Z,100336.93
2022-08-04T08:51:12.035Z,100341.25
2022-08-04T08:53:16.658Z,100340.19
2022-08-04T08:55:21.276Z,100343.19
2022-08-04T08:57:25.899Z,100336.22
2022-08-04T08:59:30.717Z,100339.61
2022-08-04T09:01:35.489Z,100338.19
2022-08-04T09:03:40.518Z,100334.11
2022-08-04T09:05:45.063Z,100336.28
2022-08-04T09:07:49.717Z,100336.94
2022-08-04T09:09:54.334Z,100335.58
2022-08-04T09:11:58.955Z,100333.64
2022-08-04T09:14:03.532Z,100331.33
2022-08-04T09:16:08.205Z,100331.52
2022-08-04T09:18:12.830Z,100331.13
2022-08-04T09:20:17.505Z,100328.02
2022-08-04T09:22:22.263Z,100335.56
2022-08-04T09:24:37.653Z,100326.56
2022-08-04T09:26:42.163Z,100328.81
2022-08-04T09:28:55.901Z,100323.85
2022-08-04T09:31:00.673Z,100328.8
2022-08-04T09:33:05.359Z,100321.42
2022-08-04T09:35:16.623Z,100325.17
2022-08-04T09:37:21.969Z,100322.88
2022-08-04T09:39:28.726Z,100323.34
2022-08-04T09:41:53.352Z,100321.01
2022-08-04T09:44:57.614Z,100317.63
2022-08-04T09:47:10.249Z,100312.34
2022-08-04T09:49:14.970Z,100312.47
2022-08-04T09:51:19.588Z,100315.84
2022-08-04T09:53:24.113Z,100313.38
2022-08-04T09:55:28.633Z,100311.37
2022-08-04T09:57:33.258Z,100307.37
2022-08-04T09:59:38.079Z,100313.66
2022-08-04T10:01:42.804Z,100312.2
2022-08-04T10:03:47.421Z,100308.67
2022-08-04T10:05:52.042Z,100306.14
2022-08-04T10:08:15.312Z,100310.88
2022-08-04T10:10:21.040Z,100307.3
2022-08-04T10:12:25.674Z,100304.27
2022-08-04T10:14:30.299Z,100303.56
2022-08-04T10:16:34.879Z,100300.48
2022-08-04T10:18:39.430Z,100299.02
2022-08-04T10:20:51.836Z,100297.52
2022-08-04T10:23:13.257Z,100299.02
2022-08-04T10:26:08.425Z,100295.39
2022-08-04T10:28:13.251Z,100294.19
2022-08-04T10:30:17.800Z,100302.12
2022-08-04T10:32:22.513Z,100294
2022-08-04T10:34:27.149Z,100296.05
2022-08-04T10:36:31.769Z,100293.3
2022-08-04T10:38:36.494Z,100295.59
2022-08-04T10:40:41.091Z,100293.08
2022-08-04T10:42:45.735Z,100291.92
2022-08-04T10:44:57.389Z,100291.5
2022-08-04T10:47:02.453Z,100290.37
2022-08-04T10:49:07.186Z,100285.33
2022-08-04T10:51:11.905Z,100284.79
2022-08-04T10:53:16.497Z,100281.11
2022-08-04T10:55:21.038Z,100284.55
2022-08-04T10:57:25.941Z,100276.3
2022-08-04T10:59:30.598Z,100276.66
2022-08-04T11:02:03.982Z,100266.19
2022-08-04T11:04:08.720Z,100265.61
2022-08-04T11:06:13.318Z,100267.81
2022-08-04T11:08:22.642Z,100271.39
2022-08-04T11:10:27.304Z,100266.78
2022-08-04T11:12:31.933Z,100267.38
2022-08-04T11:14:37.699Z,100262.98
2022-08-04T11:16:43.613Z,100265.27
2022-08-04T11:18:48.233Z,100266.48
2022-08-04T11:20:53.421Z,100265.56
2022-08-04T11:22:58.706Z,100265.77
2022-08-04T11:25:03.239Z,100263.66
2022-08-04T11:27:07.854Z,100266.51
2022-08-04T11:29:12.458Z,100263.89
2022-08-04T11:31:16.986Z,100266.39
2022-08-04T11:33:21.504Z,100260.22
2022-08-04T11:35:26.150Z,100265.88
2022-08-04T11:37:30.750Z,100259.69
2022-08-04T11:39:36.416Z,100261.77
2022-08-04T11:41:41.442Z,100259.75
2022-08-04T11:44:06.776Z,100258.02
2022-08-04T11:46:16.388Z,100261.23
2022-08-04T11:48:20.997Z,100259.84
2022-08-04T11:50:25.596Z,100262.69
2022-08-04T11:52:30.249Z,100259.81
2022-08-04T11:54:34.766Z,100253.05
2022-08-04T11:56:39.635Z,100251.37
2022-08-04T11:58:51.482Z,100255.27
2022-08-04T12:00:56.183Z,100250.92
2022-08-04T12:03:00.931Z,100249.72
2022-08-04T12:05:05.620Z,100246.61
2022-08-04T12:07:32.551Z,100245.66
2022-08-04T12:09:44.784Z,100240.3
2022-08-04T12:11:52.234Z,100241.78
2022-08-04T12:14:01.653Z,100239.42
2022-08-04T12:16:07.261Z,100240.98
2022-08-04T12:18:11.877Z,100242.19
2022-08-04T12:20:41.882Z,100241.39
2022-08-04T12:22:48.640Z,100243.52
2022-08-04T12:24:53.592Z,100242.51
2022-08-04T12:26:58.322Z,100240.23
2022-08-04T12:29:11.970Z,100232.47
2022-08-04T12:31:16.679Z,100234.79
2022-08-04T12:33:21.400Z,100238.97
2022-08-04T12:35:26.004Z,100233.39
2022-08-04T12:37:30.647Z,100228.58
2022-08-04T12:39:35.456Z,100237.34
2022-08-04T12:42:34.257Z,100235.41
2022-08-04T12:44:40.147Z,100228
2022-08-04T12:46:44.731Z,100218.39
2022-08-04T12:48:49.216Z,100214.59
2022-08-04T12:50:53.766Z,100210.55
2022-08-04T12:53:04.312Z,100214.67
2022-08-04T12:55:13.158Z,100210.8
2022-08-04T12:57:17.773Z,100214.36
2022-08-04T12:59:22.399Z,100214.91
2022-08-04T13:02:12.259Z,100209.02
2022-08-04T13:04:17.086Z,100207.41
2022-08-04T13:06:24.445Z,100202.19
2022-08-04T13:08:33.615Z,100205.84
2022-08-04T13:10:38.244Z,100209
2022-08-04T13:12:42.840Z,100208.97
2022-08-04T13:14:47.483Z,100205.2
2022-08-04T13:16:52.077Z,100201.95
2022-08-04T13:18:56.618Z,100205.51
2022-08-04T13:21:22.955Z,100204.49
2022-08-04T13:32:28.403Z,100194.03
2022-08-04T13:34:32.973Z,100191.96
2022-08-04T13:36:37.591Z,100193.17
2022-08-04T13:38:42.114Z,100190.19
2022-08-04T13:40:47.771Z,100192.42
2022-08-04T13:42:52.388Z,100188.12
2022-08-04T13:44:57.114Z,100186.26
2022-08-04T13:47:01.834Z,100196.02
2022-08-04T13:49:37.917Z,100190.17
2022-08-04T13:52:13.845Z,100182.81
2022-08-04T13:54:18.464Z,100183.06
2022-08-04T13:56:23.088Z,100183.41
2022-08-04T13:58:27.715Z,100183.39
2022-08-04T14:00:32.445Z,100184.09
2022-08-04T14:02:37.053Z,100173.78
2022-08-04T14:04:41.648Z,100170.34
2022-08-04T14:06:46.291Z,100167.35
2022-08-04T14:08:51.027Z,100165.21
2022-08-04T14:10:55.754Z,100163.63
2022-08-04T14:13:00.452Z,100160.25
2022-08-04T14:15:05.110Z,100154.78
2022-08-04T14:17:21.643Z,100160.67
2022-08-04T14:19:37.785Z,100161.17
2022-08-04T14:21:42.404Z,100163.7
2022-08-04T14:23:48.870Z,100167.61
2022-08-04T14:25:53.493Z,100162.86
2022-08-04T14:27:58.361Z,100164.2
2022-08-04T14:30:03.146Z,100161.01
2022-08-04T14:32:15.328Z,100158.77
2022-08-04T14:34:30.052Z,100155.55
2022-08-04T14:37:13.987Z,100160.43
2022-08-04T14:39:23.708Z,100153.53
2022-08-04T14:41:28.619Z,100150.16
2022-08-04T14:43:35.327Z,100148.06
2022-08-04T14:45:55.612Z,100149.31
2022-08-04T14:48:00.296Z,100149.31
2022-08-04T14:50:04.815Z,100142.83
2022-08-04T14:52:09.419Z,100139.66
2022-08-04T14:54:19.284Z,100138.54
2022-08-04T14:56:46.977Z,100136.77
2022-08-04T14:58:51.869Z,100137.13
2022-08-04T15:00:56.407Z,100136.2
2022-08-04T15:03:01.117Z,100137.47
2022-08-04T15:06:08.127Z,100135.59
2022-08-04T15:08:20.807Z,100125.77
2022-08-04T15:10:25.290Z,100131.63
2022-08-04T15:12:29.951Z,100130.09
2022-08-04T15:14:38.964Z,100130.14
2022-08-04T15:16:55.672Z,100130.28
2022-08-04T15:19:01.726Z,100124.19
2022-08-04T15:21:06.246Z,100127.58
2022-08-04T15:23:12.076Z,100125.08
2022-08-04T15:25:16.798Z,100117.55
2022-08-04T15:27:21.348Z,100111.39
2022-08-04T15:29:25.859Z,100113.59
2022-08-04T15:32:09.365Z,100110.29
2022-08-04T15:34:14.285Z,100110.94
2022-08-04T15:36:18.939Z,100110.05
2022-08-04T15:38:30.871Z,100102.12
2022-08-04T15:40:39.655Z,100106.14
2022-08-04T15:42:44.374Z,100104.56
2022-08-04T15:44:48.897Z,100105.08
2022-08-04T15:46:53.491Z,100092.46
2022-08-04T15:48:58.036Z,100104.17
2022-08-04T15:51:02.657Z,100097.52
2022-08-04T15:53:13.544Z,100094.94
2022-08-04T15:55:34.343Z,100097.77
2022-08-04T15:57:39.966Z,100089
2022-08-04T15:59:44.589Z,100102.36
2022-08-04T16:02:12.791Z,100092.96
2022-08-04T16:04:17.380Z,100087.16
2022-08-04T16:06:22.009Z,100080.38
2022-08-04T16:08:30.390Z,100083.98
2022-08-04T16:10:34.931Z,100086.2
2022-08-04T16:12:55.919Z,100086.14
2022-08-04T16:15:01.110Z,100089.7
2022-08-04T16:17:05.791Z,100083.3
2022-08-04T16:19:12.461Z,100083.23
2022-08-04T16:21:16.893Z,100092.08
2022-08-04T16:23:55.356Z,100087.09
2022-08-04T16:26:08.733Z,100083.17
2022-08-04T16:28:13.332Z,100084.26
2022-08-04T16:30:17.869Z,100084.62
2022-08-04T16:32:23.328Z,100084.45
2022-08-04T16:34:54.124Z,100086.29
2022-08-04T16:37:00.598Z,100080.84
2022-08-04T16:39:05.594Z,100080.5
2022-08-04T16:41:10.233Z,100082.73
2022-08-04T16:43:14.942Z,100084.84
2022-08-04T16:45:19.508Z,100084.42
2022-08-04T16:47:24.168Z,100085.69
2022-08-04T16:49:28.835Z,100074.78
2022-08-04T16:51:33.458Z,100074.95
2022-08-04T16:54:03.328Z,100071.27
2022-08-04T16:56:09.527Z,100073
2022-08-04T16:58:14.153Z,100077.99
2022-08-04T17:00:18.757Z,100075.34
2022-08-04T17:02:24.023Z,100082.17
2022-08-04T17:04:29.343Z,100085.27
2022-08-04T17:06:34.533Z,100076.59
2022-08-04T17:08:39.100Z,100076.32
2022-08-04T17:10:43.619Z,100074.83
2022-08-04T17:12:48.238Z,100078.89
2022-08-04T17:14:56.507Z,100079.94
2022-08-04T17:17:01.089Z,100077.69
2022-08-04T17:19:05.791Z,100077.75
2022-08-04T17:21:23.618Z,100080.17
2022-08-04T17:24:18.389Z,100078.04
2022-08-04T17:26:22.930Z,100083.67
2022-08-04T17:28:48.657Z,100079.01
2022-08-04T17:30:53.350Z,100078.95
2022-08-04T17:32:57.846Z,100077.02
2022-08-04T17:35:04.629Z,100086.59
2022-08-04T17:37:52.403Z,100087.98
2022-08-04T17:39:58.733Z,100084.64
2022-08-04T17:42:04.851Z,100089.86
2022-08-04T17:44:12.634Z,100083.09
2022-08-04T17:46:30.281Z,100085.28
2022-08-04T17:48:35.061Z,100081.64
2022-08-04T17:50:44.854Z,100086.84
2022-08-04T17:52:51.777Z,100082.92
2022-08-04T17:54:58.243Z,100078.9
2022-08-04T17:57:07.362Z,100083.78
2022-08-04T17:59:13.883Z,100082.23
2022-08-04T18:02:08.792Z,100081.2
2022-08-04T18:04:14.020Z,100077.98
2022-08-04T18:06:18.585Z,100078.57
2022-08-04T18:08:42.892Z,100078.96
2022-08-04T18:10:57.952Z,100076.72
2022-08-04T18:13:02.559Z,100077.11
2022-08-04T18:15:17.416Z,100079.42
2022-08-04T18:18:23.473Z,100077.02
2022-08-04T18:20:28.919Z,100078.4
2022-08-04T18:22:34.257Z,100075.24
2022-08-04T18:24:57.836Z,100072.31
2022-08-04T18:27:02.440Z,100077.03
2022-08-04T18:29:32.712Z,100079.48
2022-08-04T18:31:42.488Z,100075.7
2022-08-04T18:33:59.009Z,100078.17
2022-08-04T18:36:38.479Z,100075.19
2022-08-04T18:39:12.203Z,100075.41
2022-08-04T18:41:20.341Z,100080.4
2022-08-04T18:43:40.580Z,100082.88
2022-08-04T18:46:00.719Z,100083.8
2022-08-04T22:27:22.105Z,100113.16
2022-08-04T22:29:27.986Z,100120.95
2022-08-04T22:31:58.162Z,100124.19
2022-08-04T22:34:04.316Z,100122.87
2022-08-04T22:36:09.738Z,100124.92
2022-08-04T22:38:42.138Z,100121.97
2022-08-04T22:41:05.187Z,100119.26
2022-08-04T22:43:34.985Z,100122.36
2022-08-04T22:45:45.805Z,100119.65
2022-08-04T22:47:54.603Z,100111.33
2022-08-04T22:50:28.369Z,100111.14
2022-08-04T22:52:33.454Z,100113.54
2022-08-04T22:54:38.390Z,100112.03
2022-08-04T22:56:46.858Z,100117.14
2022-08-04T22:58:52.452Z,100116.2
2022-08-04T23:00:59.538Z,100113.98
2022-08-04T23:03:06.598Z,100116.55
2022-08-04T23:05:48.144Z,100116.23
2022-08-04T23:07:54.464Z,100107.45
2022-08-04T23:10:01.316Z,100107
2022-08-04T23:12:27.641Z,100110.8
2022-08-04T23:14:33.607Z,100113.43
2022-08-04T23:16:43.340Z,100107.92
2022-08-04T23:18:52.868Z,100112.38
2022-08-04T23:20:59.330Z,100118.09
2022-08-04T23:23:16.013Z,100112.01
2022-08-04T23:26:01.213Z,100110.07
2022-08-04T23:28:15.035Z,100107.27
2022-08-04T23:30:19.749Z,100107.7
2022-08-04T23:32:34.161Z,100101.96
2022-08-04T23:34:42.618Z,100113.67
2022-08-04T23:36:48.716Z,100107.11
2022-08-04T23:38:54.663Z,100099.25
2022-08-04T23:41:00.653Z,100096.7
2022-08-04T23:43:18.816Z,100103.37
2022-08-04T23:46:07.911Z,100093.2
2022-08-04T23:48:21.996Z,100092.52
2022-08-04T23:50:29.025Z,100101.56
2022-08-04T23:52:35.918Z,100099.45
2022-08-04T23:54:42.906Z,100093.2
2022-08-04T23:56:49.424Z,100090.27
2022-08-04T23:58:55.397Z,100100.29
